Time;durP1;ratioP1;P1;durP2;ratioP2;P2;SDS_P1;SDS_P2;PMS_P1;PMS_P2;Temp;Humidity;BMP_temperature;BMP_pressure;BME280_temperature;BME280_humidity;BME280_pressure;Samples;Min_cycle;Max_cycle;Signal;HPM_P1;HPM_P2
2023/09/03 00:00:22;;;;;;;27.92;18.67;;;;;;;14.72;100.00;102371.72;6209594;23;20005;-76
2023/09/03 00:02:48;;;;;;;30.17;17.85;;;;;;;14.73;100.00;102372.59;6209417;23;20079;-76
2023/09/03 00:05:13;;;;;;;29.05;17.63;;;;;;;14.72;100.00;102376.28;6212388;23;20438;-78
2023/09/03 00:07:38;;;;;;;27.05;15.65;;;;;;;14.71;100.00;102371.84;6210809;23;20008;-76
2023/09/03 00:10:04;;;;;;;25.38;15.02;;;;;;;14.66;100.00;102373.00;6211164;23;20370;-76
2023/09/03 00:12:29;;;;;;;26.05;16.17;;;;;;;14.64;100.00;102372.25;6210673;23;20062;-76
2023/09/03 00:14:55;;;;;;;26.10;15.65;;;;;;;14.63;100.00;102375.06;6211443;23;20430;-76
2023/09/03 00:17:20;;;;;;;29.27;17.10;;;;;;;14.61;100.00;102372.47;6210962;23;20012;-76
2023/09/03 00:19:46;;;;;;;25.80;15.93;;;;;;;14.58;100.00;102372.59;6210604;23;20000;-76
2023/09/03 00:22:11;;;;;;;25.88;16.13;;;;;;;14.54;100.00;102376.50;6209024;23;20083;-77
2023/09/03 00:24:36;;;;;;;29.73;16.23;;;;;;;14.52;100.00;102356.78;6209582;23;20342;-76
2023/09/03 00:27:02;;;;;;;26.38;17.10;;;;;;;14.49;100.00;102370.50;6209304;23;20004;-76
2023/09/03 00:29:27;;;;;;;25.63;17.48;;;;;;;14.46;100.00;102376.13;6209537;23;20096;-76
2023/09/03 00:31:52;;;;;;;25.98;16.80;;;;;;;14.43;100.00;102374.47;6209216;23;20044;-76
2023/09/03 00:34:18;;;;;;;26.33;16.55;;;;;;;14.42;100.00;102385.41;6211002;23;20083;-76
2023/09/03 00:36:44;;;;;;;26.73;17.05;;;;;;;14.40;100.00;102382.81;6210876;23;20008;-76
2023/09/03 00:39:10;;;;;;;24.55;15.25;;;;;;;14.40;100.00;102384.66;6209604;23;20004;-76
2023/09/03 00:41:35;;;;;;;25.40;15.65;;;;;;;14.36;100.00;102388.50;6209221;23;20338;-76
2023/09/03 00:44:02;;;;;;;27.77;16.13;;;;;;;14.35;100.00;102393.06;6208402;23;20437;-76
2023/09/03 00:46:28;;;;;;;25.40;16.02;;;;;;;14.34;100.00;102389.47;6210907;23;20012;-76
2023/09/03 00:48:53;;;;;;;28.52;16.95;;;;;;;14.36;100.00;102393.94;6209276;23;20004;-76
2023/09/03 00:51:18;;;;;;;26.55;16.58;;;;;;;14.33;100.00;102398.56;6211019;23;20012;-77
2023/09/03 00:53:48;;;;;;;29.52;17.58;;;;;;;14.32;100.00;102396.84;6208980;23;20733;-77
2023/09/03 00:56:13;;;;;;;26.98;16.35;;;;;;;14.30;100.00;102396.03;6209328;23;20025;-77
2023/09/03 00:58:40;;;;;;;25.48;14.93;;;;;;;14.29;100.00;102404.25;6209180;23;20558;-77
2023/09/03 01:01:06;;;;;;;26.23;14.95;;;;;;;14.26;100.00;102399.94;6211763;23;20374;-75
2023/09/03 01:03:32;;;;;;;29.02;17.35;;;;;;;14.25;100.00;102394.63;6209430;23;20017;-75
2023/09/03 01:05:57;;;;;;;24.55;14.77;;;;;;;14.23;100.00;102400.13;6209342;23;20043;-75
2023/09/03 01:08:24;;;;;;;26.27;17.08;;;;;;;14.21;100.00;102407.47;6209029;23;20438;-75
2023/09/03 01:11:08;;;;;;;24.55;15.52;;;;;;;14.22;100.00;102419.16;6210049;23;20083;-75
2023/09/03 01:13:43;;;;;;;25.48;15.18;;;;;;;14.22;100.00;102419.16;6211488;23;20032;-75
2023/09/03 01:16:17;;;;;;;27.10;15.73;;;;;;;14.20;100.00;102413.81;6211511;23;20050;-75
2023/09/03 01:18:44;;;;;;;24.73;15.23;;;;;;;14.19;100.00;102406.69;6212800;23;20007;-75
2023/09/03 01:21:43;;;;;;;25.48;15.70;;;;;;;14.21;100.00;102403.91;6213050;23;20004;-75
2023/09/03 01:24:26;;;;;;;25.60;15.88;;;;;;;14.18;100.00;102401.41;6212953;23;20004;-75
2023/09/03 01:27:06;;;;;;;25.77;15.43;;;;;;;14.15;100.00;102400.59;6211133;23;20061;-75
2023/09/03 01:29:32;;;;;;;26.73;15.68;;;;;;;14.14;100.00;102404.28;6213180;23;20066;-75
2023/09/03 01:32:00;;;;;;;24.63;14.57;;;;;;;14.15;100.00;102405.16;6210806;23;20008;-75
2023/09/03 01:34:26;;;;;;;27.85;15.45;;;;;;;14.15;100.00;102405.16;6212355;23;20004;-75
2023/09/03 01:36:52;;;;;;;28.27;15.38;;;;;;;14.17;100.00;102403.22;6212885;23;20509;-75
2023/09/03 01:39:17;;;;;;;27.65;15.90;;;;;;;14.17;100.00;102400.50;6213299;23;20004;-75
2023/09/03 01:41:43;;;;;;;25.75;14.80;;;;;;;14.15;100.00;102397.03;6212279;23;20014;-75
2023/09/03 01:44:09;;;;;;;26.88;15.70;;;;;;;14.15;100.00;102397.03;6211782;23;20351;-75
2023/09/03 01:46:50;;;;;;;29.10;14.70;;;;;;;14.15;100.00;102402.44;6210607;23;20319;-75
2023/09/03 01:49:34;;;;;;;26.08;15.48;;;;;;;14.14;100.00;102400.69;6210994;23;20004;-75
2023/09/03 01:52:20;;;;;;;26.55;14.80;;;;;;;14.12;100.00;102398.09;6210330;23;20004;-74
2023/09/03 01:54:48;;;;;;;25.13;15.18;;;;;;;14.08;100.00;102398.41;6212633;23;20043;-75
2023/09/03 01:57:21;;;;;;;26.90;15.77;;;;;;;14.06;100.00;102398.50;6210355;23;20023;-74
2023/09/03 01:59:53;;;;;;;26.27;15.13;;;;;;;14.03;100.00;102403.25;6212274;23;20430;-75
2023/09/03 02:02:20;;;;;;;26.25;15.68;;;;;;;14.02;100.00;102402.34;6212999;23;20032;-74
2023/09/03 02:04:46;;;;;;;25.20;14.52;;;;;;;14.00;100.00;102407.00;6210835;23;20008;-75
2023/09/03 02:07:11;;;;;;;24.95;14.23;;;;;;;13.98;100.00;102404.41;6212920;23;20066;-75
2023/09/03 02:09:36;;;;;;;26.90;16.30;;;;;;;13.99;100.00;102400.72;6211088;23;20001;-75
2023/09/03 02:12:03;;;;;;;27.73;16.10;;;;;;;14.01;100.00;102405.16;6210715;23;20497;-77
2023/09/03 02:14:28;;;;;;;26.17;14.32;;;;;;;13.99;100.00;102418.78;6210677;23;20009;-77
2023/09/03 02:16:54;;;;;;;28.25;15.85;;;;;;;13.95;100.00;102418.09;6210600;23;20011;-77
2023/09/03 02:19:19;;;;;;;27.77;15.13;;;;;;;13.94;100.00;102432.56;6211133;23;20343;-77
2023/09/03 02:21:45;;;;;;;25.85;15.25;;;;;;;13.95;100.00;102428.03;6212346;23;20409;-77
2023/09/03 02:24:10;;;;;;;25.73;16.25;;;;;;;13.95;100.00;102426.22;6210773;23;20374;-77
2023/09/03 02:26:40;;;;;;;26.75;14.63;;;;;;;13.91;100.00;102438.19;6211398;23;20036;-77
2023/09/03 02:29:06;;;;;;;23.92;13.85;;;;;;;13.87;100.00;102442.03;6212788;23;20000;-77
2023/09/03 02:31:31;;;;;;;23.38;12.70;;;;;;;13.83;100.00;102442.31;6210375;23;20000;-77
2023/09/03 02:33:56;;;;;;;22.23;12.35;;;;;;;13.78;100.00;102450.72;6209935;23;20504;-77
2023/09/03 02:36:21;;;;;;;24.73;13.70;;;;;;;13.76;100.00;102444.50;6210076;23;20040;-77
2023/09/03 02:38:47;;;;;;;23.88;13.38;;;;;;;13.74;100.00;102458.13;6212111;23;20400;-77
2023/09/03 02:41:12;;;;;;;26.55;15.48;;;;;;;13.73;100.00;102447.41;6210821;23;20019;-77
2023/09/03 02:43:37;;;;;;;27.70;15.27;;;;;;;13.73;100.00;102442.00;6212164;23;20004;-77
2023/09/03 02:46:03;;;;;;;26.05;15.02;;;;;;;13.71;100.00;102436.69;6209838;23;20450;-77
2023/09/03 02:48:28;;;;;;;26.85;15.82;;;;;;;13.71;100.00;102438.53;6209904;23;20491;-77
2023/09/03 02:50:53;;;;;;;24.80;13.68;;;;;;;13.68;100.00;102427.94;6209251;23;20098;-77
2023/09/03 02:53:19;;;;;;;23.92;14.07;;;;;;;13.64;100.00;102414.56;6209713;23;20035;-77
2023/09/03 02:55:44;;;;;;;24.80;14.52;;;;;;;13.63;100.00;102420.97;6211579;23;20091;-77
2023/09/03 02:58:09;;;;;;;24.15;14.13;;;;;;;13.66;100.00;102421.72;6212869;23;20031;-77
2023/09/03 03:00:35;;;;;;;24.40;14.15;;;;;;;13.64;100.00;102424.53;6212180;23;20012;-77
2023/09/03 03:03:00;;;;;;;26.25;16.35;;;;;;;13.61;100.00;102430.97;6210377;23;20008;-77
2023/09/03 03:05:26;;;;;;;26.02;14.23;;;;;;;13.60;100.00;102434.66;6211951;23;20011;-77
2023/09/03 03:07:51;;;;;;;23.42;13.70;;;;;;;13.62;100.00;102427.31;6209259;23;20028;-77
2023/09/03 03:10:17;;;;;;;28.40;15.40;;;;;;;13.62;100.00;102432.72;6210653;23;20009;-77
2023/09/03 03:12:45;;;;;;;26.77;14.85;;;;;;;13.59;100.00;102437.47;6210865;23;20005;-77
2023/09/03 03:15:10;;;;;;;26.23;14.73;;;;;;;13.58;100.00;102441.97;6210449;23;20346;-77
2023/09/03 03:17:36;;;;;;;25.70;13.88;;;;;;;13.60;100.00;102441.88;6209394;23;20008;-77
2023/09/03 03:20:02;;;;;;;24.67;13.45;;;;;;;13.56;100.00;102441.22;6209967;23;20438;-77
2023/09/03 03:22:28;;;;;;;23.98;14.27;;;;;;;13.54;100.00;102440.41;6224274;23;19988;-76
2023/09/03 03:24:53;;;;;;;22.77;12.95;;;;;;;13.54;100.00;102418.81;6240021;23;20048;-76
2023/09/03 03:27:20;;;;;;;22.25;12.77;;;;;;;13.51;100.00;102408.19;6241222;22;20008;-76
2023/09/03 03:29:45;;;;;;;24.65;13.70;;;;;;;13.49;100.00;102393.06;6240391;23;20003;-76
2023/09/03 03:32:10;;;;;;;24.52;15.05;;;;;;;13.49;100.00;102404.72;6241448;22;20013;-76
2023/09/03 03:34:40;;;;;;;26.98;15.25;;;;;;;13.50;100.00;102395.66;6240682;23;20001;-76
2023/09/03 03:37:05;;;;;;;;;;;;;;;13.57;100.00;102394.34;6241442;23;20023;-76
2023/09/03 03:39:30;;;;;;;27.10;15.10;;;;;;;13.53;100.00;102400.88;6241150;22;19943;-77
2023/09/03 03:41:56;;;;;;;26.55;15.63;;;;;;;13.54;100.00;102410.69;6239911;22;19996;-77
2023/09/03 03:44:21;;;;;;;29.08;16.67;;;;;;;13.53;100.00;102419.78;6239625;23;20027;-77
2023/09/03 03:46:46;;;;;;;27.25;16.35;;;;;;;13.54;100.00;102432.31;6240592;23;20072;-76
2023/09/03 03:49:12;;;;;;;27.17;15.82;;;;;;;13.53;100.00;102433.28;6240655;22;20161;-76
2023/09/03 03:51:37;;;;;;;27.75;12.20;;;;;;;13.52;100.00;102436.94;6240354;23;20009;-76
2023/09/03 03:54:03;;;;;;;25.10;13.45;;;;;;;13.49;100.00;102450.63;6240802;23;20005;-76
2023/09/03 03:56:29;;;;;;;24.13;13.90;;;;;;;13.45;100.00;102444.53;6239424;23;20033;-76
2023/09/03 03:58:54;;;;;;;24.27;13.80;;;;;;;13.41;100.00;102442.13;6240743;23;20049;-76
2023/09/03 04:01:23;;;;;;;24.85;14.88;;;;;;;13.39;100.00;102433.25;6240505;23;19996;-76
2023/09/03 04:03:50;;;;;;;26.77;14.48;;;;;;;13.38;100.00;102429.69;6241322;23;20007;-76
2023/09/03 04:06:16;;;;;;;24.63;14.02;;;;;;;13.35;100.00;102442.50;6240999;23;20019;-76
2023/09/03 04:08:45;;;;;;;24.75;14.65;;;;;;;13.34;100.00;102441.63;6240523;23;20043;-76
2023/09/03 04:11:16;;;;;;;25.90;14.57;;;;;;;13.34;100.00;102448.81;6239327;23;20004;-76
2023/09/03 04:13:41;;;;;;;23.17;12.38;;;;;;;13.31;100.00;102455.28;6240766;23;20057;-76
2023/09/03 04:16:10;;;;;;;23.70;13.10;;;;;;;13.29;100.00;102455.38;6240071;22;20062;-76
2023/09/03 04:18:36;;;;;;;23.60;12.83;;;;;;;13.31;100.00;102460.69;6239980;23;20000;-76
2023/09/03 04:21:01;;;;;;;23.80;14.02;;;;;;;13.27;100.00;102459.97;6240088;23;20299;-77
2023/09/03 04:23:26;;;;;;;23.30;12.85;;;;;;;13.25;100.00;102461.91;6240524;22;20111;-77
2023/09/03 04:25:52;;;;;;;24.92;11.63;;;;;;;13.23;100.00;102462.97;6239436;23;20008;-76
2023/09/03 04:28:21;;;;;;;24.77;14.68;;;;;;;13.20;100.00;102466.69;6239657;23;20013;-76
2023/09/03 04:30:53;;;;;;;23.90;12.80;;;;;;;13.20;100.00;102464.00;6238475;22;20009;-76
2023/09/03 04:33:18;;;;;;;23.85;13.52;;;;;;;13.21;100.00;102462.19;6220938;23;20016;-74
2023/09/03 04:35:43;;;;;;;24.27;13.85;;;;;;;13.19;100.00;102461.38;6209512;23;20051;-74
2023/09/03 04:38:09;;;;;;;24.70;13.30;;;;;;;13.19;100.00;102473.09;6210102;23;20039;-74
2023/09/03 04:40:35;;;;;;;23.77;13.25;;;;;;;13.16;100.00;102478.63;6208722;23;20031;-74
2023/09/03 04:43:01;;;;;;;24.48;13.35;;;;;;;13.11;100.00;102476.22;6209783;23;20055;-74
2023/09/03 04:45:27;;;;;;;28.80;13.30;;;;;;;13.10;100.00;102484.41;6209526;23;20452;-74
2023/09/03 04:47:52;;;;;;;23.25;12.25;;;;;;;13.09;100.00;102478.13;6209281;23;20012;-74
2023/09/03 04:50:18;;;;;;;24.02;13.32;;;;;;;13.08;100.00;102473.69;6211131;23;20043;-74
2023/09/03 04:52:44;;;;;;;23.38;12.95;;;;;;;13.10;100.00;102479.00;6208607;23;20012;-74
2023/09/03 04:55:10;;;;;;;23.30;13.35;;;;;;;13.07;100.00;102482.72;6211768;23;20027;-74
2023/09/03 04:57:36;;;;;;;23.42;13.50;;;;;;;13.07;100.00;102481.88;6211003;23;20050;-74
2023/09/03 05:00:01;;;;;;;25.15;14.15;;;;;;;13.07;100.00;102488.13;6209644;23;20501;-74
2023/09/03 05:02:26;;;;;;;28.55;14.32;;;;;;;13.08;100.00;102489.03;6211220;23;20004;-74
2023/09/03 05:04:52;;;;;;;24.58;14.07;;;;;;;13.06;100.00;102499.91;6208996;23;20019;-74
2023/09/03 05:07:17;;;;;;;26.73;13.68;;;;;;;13.08;100.00;102502.53;6209300;23;20083;-74
2023/09/03 05:09:42;;;;;;;24.23;12.88;;;;;;;13.08;100.00;102500.69;6209485;23;20386;-75
2023/09/03 05:12:08;;;;;;;23.40;12.90;;;;;;;13.07;100.00;102496.22;6210292;23;20390;-74
2023/09/03 05:14:33;;;;;;;22.88;12.73;;;;;;;13.04;100.00;102499.09;6211448;23;20005;-74
2023/09/03 05:16:58;;;;;;;24.23;12.38;;;;;;;13.03;100.00;102497.41;6208846;23;19996;-74
2023/09/03 05:19:24;;;;;;;23.73;13.75;;;;;;;13.04;100.00;102503.66;6210884;23;20008;-74
2023/09/03 05:21:49;;;;;;;24.38;14.07;;;;;;;13.04;100.00;102500.94;6211272;23;20009;-74
2023/09/03 05:24:15;;;;;;;24.08;13.38;;;;;;;13.06;100.00;102505.31;6209506;23;20400;-74
2023/09/03 05:26:40;;;;;;;25.00;13.70;;;;;;;13.08;100.00;102507.91;6209606;23;20305;-74
2023/09/03 05:29:06;;;;;;;25.35;14.95;;;;;;;13.09;100.00;102518.63;6211433;23;20000;-74
2023/09/03 05:31:31;;;;;;;25.75;14.73;;;;;;;13.12;100.00;102523.00;6209648;23;20002;-74
2023/09/03 05:33:57;;;;;;;24.30;12.63;;;;;;;13.14;100.00;102518.34;6210770;23;20000;-74
2023/09/03 05:36:22;;;;;;;22.30;13.00;;;;;;;13.14;100.00;102517.50;6210496;23;20410;-74
2023/09/03 05:38:48;;;;;;;23.65;13.45;;;;;;;13.14;100.00;102521.06;6209730;23;20005;-74
2023/09/03 05:41:14;;;;;;;26.83;14.38;;;;;;;13.16;100.00;102521.81;6211049;23;20008;-74
2023/09/03 05:43:39;;;;;;;24.52;14.18;;;;;;;13.20;100.00;102515.28;6209995;23;20009;-76
2023/09/03 05:46:04;;;;;;;24.20;13.65;;;;;;;13.22;100.00;102521.50;6211323;23;20098;-76
2023/09/03 05:48:30;;;;;;;25.48;13.82;;;;;;;13.23;100.00;102520.50;6209987;23;20007;-76
2023/09/03 05:51:05;;;;;;;24.77;13.93;;;;;;;13.26;100.00;102520.34;6208848;23;20015;-77
2023/09/03 05:53:32;;;;;;;23.77;13.32;;;;;;;13.29;100.00;102517.47;6209229;23;20082;-77
2023/09/03 05:56:08;;;;;;;25.20;13.38;;;;;;;13.34;100.00;102519.94;6209279;23;20088;-77
2023/09/03 05:58:34;;;;;;;24.33;13.52;;;;;;;13.34;100.00;102525.34;6212086;23;20001;-76
2023/09/03 06:01:03;;;;;;;24.27;13.68;;;;;;;13.37;100.00;102537.81;6211981;23;20338;-77
2023/09/03 06:03:28;;;;;;;24.67;14.18;;;;;;;13.40;100.00;102532.22;6210856;23;20009;-77
2023/09/03 06:05:54;;;;;;;25.08;14.77;;;;;;;13.44;100.00;102541.84;6210706;23;20004;-77
2023/09/03 06:08:19;;;;;;;30.60;14.95;;;;;;;13.47;100.00;102544.41;6210638;23;20325;-76
2023/09/03 06:10:44;;;;;;;25.42;15.32;;;;;;;13.51;100.00;102548.66;6212271;23;20007;-76
2023/09/03 06:13:10;;;;;;;25.63;14.70;;;;;;;13.52;100.00;102544.13;6212065;23;20312;-77
2023/09/03 06:15:35;;;;;;;23.58;12.82;;;;;;;13.52;100.00;102550.41;6210718;23;20055;-77
2023/09/03 06:18:00;;;;;;;24.52;13.90;;;;;;;13.57;100.00;102560.94;6211717;23;20032;-77
2023/09/03 06:20:25;;;;;;;26.98;14.77;;;;;;;13.61;100.00;102559.78;6211625;23;20075;-77
2023/09/03 06:22:51;;;;;;;28.48;15.80;;;;;;;13.63;100.00;102547.94;6212078;23;20004;-77
2023/09/03 06:25:17;;;;;;;28.05;16.30;;;;;;;13.67;100.00;102561.25;6211000;23;20004;-77
2023/09/03 06:27:43;;;;;;;30.27;17.30;;;;;;;13.71;100.00;102568.25;6212024;23;20012;-77
2023/09/03 06:30:09;;;;;;;27.95;17.63;;;;;;;13.74;100.00;102577.03;6210200;23;20004;-76
2023/09/03 06:32:36;;;;;;;26.92;16.95;;;;;;;13.78;100.00;102575.88;6210265;23;20009;-76
2023/09/03 06:35:03;;;;;;;27.58;17.55;;;;;;;13.82;100.00;102590.06;6210703;23;20013;-77
2023/09/03 06:37:28;;;;;;;28.20;18.17;;;;;;;13.87;100.00;102592.53;6209638;23;20244;-77
2023/09/03 06:39:53;;;;;;;28.38;17.42;;;;;;;13.90;100.00;102598.59;6212711;23;20000;-77
2023/09/03 06:42:18;;;;;;;28.65;18.80;;;;;;;13.93;100.00;102603.81;6212611;23;20441;-76
2023/09/03 06:44:44;;;;;;;28.50;19.88;;;;;;;13.98;100.00;102600.84;6210440;23;20131;-76
2023/09/03 06:47:09;;;;;;;28.77;19.20;;;;;;;14.02;100.00;102604.25;6212635;23;20444;-76
2023/09/03 06:49:34;;;;;;;30.10;19.90;;;;;;;14.05;100.00;102612.16;6210670;23;20001;-76
2023/09/03 06:52:00;;;;;;;29.92;20.85;;;;;;;14.07;100.00;102611.13;6210665;23;20074;-76
2023/09/03 06:54:25;;;;;;;32.53;21.70;;;;;;;14.12;100.00;102614.41;6232850;23;20015;-76
2023/09/03 06:56:50;;;;;;;31.00;20.40;;;;;;;14.15;100.00;102613.34;6235781;23;20020;-76
2023/09/03 06:59:15;;;;;;;34.10;23.50;;;;;;;14.21;100.00;102621.09;6235445;23;20020;-76
2023/09/03 07:01:41;;;;;;;32.28;22.95;;;;;;;14.25;100.00;102624.50;6236374;23;20011;-76
2023/09/03 07:04:06;;;;;;;33.45;25.20;;;;;;;14.29;100.00;102621.50;6238463;23;20007;-76
2023/09/03 07:06:31;;;;;;;33.55;24.52;;;;;;;14.33;100.00;102609.53;6238265;23;20004;-76
2023/09/03 07:08:57;;;;;;;34.40;26.13;;;;;;;14.40;100.00;102615.44;6238170;23;20001;-77
2023/09/03 07:11:22;;;;;;;35.65;25.90;;;;;;;14.46;100.00;102622.31;6237476;23;20064;-77
2023/09/03 07:13:49;;;;;;;32.15;24.85;;;;;;;14.51;100.00;102623.75;6237361;23;20000;-77
2023/09/03 07:16:14;;;;;;;42.22;26.27;;;;;;;14.56;100.00;102623.47;6235162;23;20008;-77
2023/09/03 07:18:40;;;;;;;33.25;22.33;;;;;;;14.62;100.00;102627.69;6236594;23;19993;-77
2023/09/03 07:21:06;;;;;;;34.13;24.77;;;;;;;14.66;100.00;102635.50;6235781;23;20000;-77
2023/09/03 07:23:32;;;;;;;34.08;23.00;;;;;;;14.71;100.00;102631.66;6235459;23;20020;-76
2023/09/03 07:26:03;;;;;;;33.17;23.45;;;;;;;14.76;100.00;102635.81;6219384;23;20026;-75
2023/09/03 07:28:28;;;;;;;32.80;24.55;;;;;;;14.81;100.00;102638.22;6220094;23;19996;-79
2023/09/03 07:30:54;;;;;;;33.75;24.00;;;;;;;14.88;100.00;102628.75;6215877;23;20000;-74
2023/09/03 07:33:19;;;;;;;35.90;24.30;;;;;;;14.93;100.00;102631.16;6214820;23;20011;-74
2023/09/03 07:35:44;;;;;;;34.60;24.27;;;;;;;14.98;100.00;102639.88;6219813;23;20008;-74
2023/09/03 07:38:09;;;;;;;33.72;22.20;;;;;;;15.03;100.00;102643.16;6218305;23;20005;-75
2023/09/03 07:40:38;;;;;;;33.78;23.30;;;;;;;15.08;100.00;102640.13;6213114;23;20023;-75
2023/09/03 07:43:04;;;;;;;35.42;25.42;;;;;;;15.14;100.00;102647.84;6219139;23;20004;-76
2023/09/03 07:45:29;;;;;;;37.47;24.95;;;;;;;15.19;100.00;102645.75;6214327;23;20005;-72
2023/09/03 07:47:54;;;;;;;33.58;24.13;;;;;;;15.27;100.00;102650.66;6218694;23;20005;-75
2023/09/03 07:50:20;;;;;;;31.30;22.30;;;;;;;15.31;100.00;102658.47;6226163;23;20008;-75
2023/09/03 07:52:45;;;;;;;33.22;24.63;;;;;;;15.35;100.00;102659.16;6221747;23;20004;-76
2023/09/03 07:55:10;;;;;;;32.50;25.50;;;;;;;15.39;100.00;102660.72;6216870;23;20090;-78
2023/09/03 07:57:36;;;;;;;32.60;21.58;;;;;;;15.43;100.00;102661.38;6228321;22;20189;-77
2023/09/03 08:00:01;;;;;;;24.60;13.50;;;;;;;15.44;100.00;102658.56;6217230;23;20035;-76
2023/09/03 08:02:26;;;;;;;36.08;27.85;;;;;;;15.50;100.00;102647.31;6211756;23;20005;-74
2023/09/03 08:04:52;;;;;;;28.23;16.60;;;;;;;15.52;100.00;102655.34;6211041;23;20008;-74
2023/09/03 08:07:17;;;;;;;25.05;14.48;;;;;;;15.55;100.00;102655.16;6210532;23;20016;-74
2023/09/03 08:09:42;;;;;;;30.77;22.63;;;;;;;15.64;100.00;102653.69;6211272;23;20008;-74
2023/09/03 08:12:08;;;;;;;26.35;17.13;;;;;;;15.65;100.00;102658.13;6209203;23;20054;-75
2023/09/03 08:14:33;;;;;;;26.25;17.83;;;;;;;15.67;100.00;102653.50;6211468;23;20315;-75
2023/09/03 08:16:58;;;;;;;34.65;25.25;;;;;;;15.72;100.00;102654.94;6210382;23;20009;-75
2023/09/03 08:19:23;;;;;;;33.88;26.67;;;;;;;15.76;100.00;102658.28;6211795;23;20189;-75
2023/09/03 08:21:49;;;;;;;30.95;19.73;;;;;;;15.78;100.00;102647.34;6211127;23;20035;-74
2023/09/03 08:24:14;;;;;;;27.33;17.02;;;;;;;15.82;100.00;102657.03;6211644;23;20004;-75
2023/09/03 08:26:40;;;;;;;28.23;18.65;;;;;;;15.85;100.00;102648.69;6211475;23;20028;-75
2023/09/03 08:29:05;;;;;;;25.48;15.32;;;;;;;15.87;100.00;102644.94;6211634;23;20000;-75
2023/09/03 08:31:30;;;;;;;32.22;22.65;;;;;;;15.94;100.00;102645.38;6210075;23;20381;-75
2023/09/03 08:33:56;;;;;;;30.23;21.65;;;;;;;15.98;100.00;102649.63;6211395;23;20465;-74
2023/09/03 08:36:22;;;;;;;34.03;22.27;;;;;;;16.03;100.00;102652.91;6210272;23;20335;-75
2023/09/03 08:38:47;;;;;;;33.08;23.55;;;;;;;16.12;100.00;102647.81;6208044;23;20013;-75
2023/09/03 08:41:14;;;;;;;29.27;19.83;;;;;;;16.18;100.00;102658.22;6209746;23;20000;-79
2023/09/03 08:43:39;;;;;;;34.72;24.92;;;;;;;16.29;100.00;102657.50;6211918;23;20079;-79
2023/09/03 08:46:10;;;;;;;27.65;20.15;;;;;;;16.34;100.00;102658.94;6211961;23;20047;-78
2023/09/03 08:48:35;;;;;;;25.70;15.57;;;;;;;16.38;100.00;102660.47;6210657;23;20004;-76
2023/09/03 08:51:01;;;;;;;30.50;17.08;;;;;;;16.47;100.00;102661.66;6211331;23;20071;-77
2023/09/03 08:53:30;;;;;;;32.90;24.38;;;;;;;16.59;100.00;102658.09;6208183;23;20028;-79
2023/09/03 08:55:56;;;;;;;30.67;20.38;;;;;;;16.71;100.00;102664.50;6208127;23;20067;-79
2023/09/03 08:58:21;;;;;;;32.90;22.83;;;;;;;16.82;100.00;102663.72;6211549;23;20064;-79
2023/09/03 09:00:47;;;;;;;29.10;16.67;;;;;;;16.86;100.00;102670.69;6211640;23;20076;-79
2023/09/03 09:03:15;;;;;;;30.05;19.13;;;;;;;16.94;100.00;102662.91;6210083;23;20263;-79
2023/09/03 09:05:42;;;;;;;28.98;19.60;;;;;;;17.04;100.00;102662.22;6209901;23;20005;-79
2023/09/03 09:08:07;;;;;;;23.27;12.85;;;;;;;17.09;100.00;102660.91;6209951;23;20001;-79
2023/09/03 09:10:38;;;;;;;28.73;20.00;;;;;;;17.21;100.00;102656.44;6209752;23;20020;-79
2023/09/03 09:13:05;;;;;;;22.95;12.38;;;;;;;17.26;100.00;102666.97;6212008;23;20009;-79
2023/09/03 09:15:33;;;;;;;28.55;19.13;;;;;;;17.34;100.00;102659.13;6209996;23;20005;-79
2023/09/03 09:17:58;;;;;;;25.88;13.82;;;;;;;17.38;100.00;102654.31;6209826;23;20005;-79
2023/09/03 09:20:24;;;;;;;31.13;22.70;;;;;;;17.51;100.00;102657.00;6209829;23;20055;-80
2023/09/03 09:22:49;;;;;;;25.35;16.08;;;;;;;17.57;100.00;102654.72;6211494;23;20027;-79
2023/09/03 09:25:19;;;;;;;23.55;14.13;;;;;;;17.61;100.00;102652.63;6211228;23;20008;-79
2023/09/03 09:27:45;;;;;;;29.77;18.88;;;;;;;17.71;100.00;102664.56;6211816;23;20426;-80
2023/09/03 09:30:12;;;;;;;28.70;20.40;;;;;;;17.81;100.00;102660.16;6209954;23;20020;-79
2023/09/03 09:32:40;;;;;;;26.17;15.98;;;;;;;17.91;100.00;102654.06;6212841;23;20008;-79
2023/09/03 09:35:06;;;;;;;28.42;19.25;;;;;;;17.99;100.00;102655.22;6213238;23;20430;-79
2023/09/03 09:37:41;;;;;;;27.40;14.85;;;;;;;18.04;100.00;102653.97;6213480;23;20079;-79
2023/09/03 09:40:12;;;;;;;23.70;13.45;;;;;;;18.11;100.00;102657.97;6213274;23;20004;-78
2023/09/03 09:42:51;;;;;;;25.13;13.45;;;;;;;18.19;100.00;102651.97;6211618;23;20091;-80
2023/09/03 09:45:17;;;;;;;27.30;16.75;;;;;;;18.24;100.00;102650.59;6213305;23;20035;-79
2023/09/03 09:47:42;;;;;;;27.13;15.88;;;;;;;18.30;100.00;102655.59;6211778;23;20009;-79
2023/09/03 09:50:08;;;;;;;24.45;14.93;;;;;;;18.39;100.00;102656.72;6213072;23;20027;-79
2023/09/03 09:52:36;;;;;;;28.20;14.65;;;;;;;18.44;100.00;102651.75;6213201;23;20087;-79
2023/09/03 09:55:02;;;;;;;23.65;13.57;;;;;;;18.46;100.00;102649.81;6213173;23;20020;-79
2023/09/03 09:57:27;;;;;;;22.83;12.45;;;;;;;18.49;100.00;102638.69;6213025;23;20008;-78
2023/09/03 09:59:55;;;;;;;26.63;14.18;;;;;;;18.51;100.00;102644.84;6211534;23;20015;-79
2023/09/03 10:02:22;;;;;;;22.95;12.90;;;;;;;18.54;100.00;102642.88;6213414;23;20379;-79
2023/09/03 10:04:49;;;;;;;25.83;13.70;;;;;;;18.54;100.00;102645.59;6213481;23;20008;-79
2023/09/03 10:07:15;;;;;;;29.15;15.48;;;;;;;18.57;100.00;102632.63;6211302;23;20315;-80
2023/09/03 10:09:42;;;;;;;23.35;14.43;;;;;;;18.61;100.00;102644.13;6211946;23;20038;-79
2023/09/03 10:12:08;;;;;;;25.45;15.55;;;;;;;18.63;100.00;102653.06;6211298;23;20067;-79
2023/09/03 10:14:34;;;;;;;25.42;14.68;;;;;;;18.67;100.00;102651.81;6213325;23;20007;-80
2023/09/03 10:17:01;;;;;;;24.65;13.70;;;;;;;18.73;100.00;102643.16;6213121;23;20005;-79
2023/09/03 10:19:31;;;;;;;22.50;12.68;;;;;;;18.78;100.00;102634.63;6213133;23;20007;-79
2023/09/03 10:22:01;;;;;;;23.23;12.68;;;;;;;18.83;100.00;102636.00;6212582;23;20004;-80
2023/09/03 10:24:28;;;;;;;24.25;12.30;;;;;;;18.91;100.00;102639.97;6220505;23;20027;-76
2023/09/03 10:27:00;;;;;;;21.83;11.50;;;;;;;18.99;100.00;102645.66;6222669;23;20032;-76
2023/09/03 10:29:28;;;;;;;22.95;12.02;;;;;;;19.03;100.00;102638.97;6222244;23;20003;-76
2023/09/03 10:31:55;;;;;;;21.77;11.75;;;;;;;19.08;100.00;102639.50;6222245;23;20083;-76
2023/09/03 10:34:20;;;;;;;22.60;12.98;;;;;;;19.20;100.00;102643.06;6221119;23;20004;-76
2023/09/03 10:37:15;;;;;;;23.02;12.48;;;;;;;19.26;100.00;102652.59;6222007;23;20058;-76
2023/09/03 10:39:43;;;;;;;26.08;12.55;;;;;;;19.28;100.00;102645.16;6213794;23;20012;-76
2023/09/03 10:42:14;;;;;;;23.00;11.48;;;;;;;19.32;100.00;102642.06;6220658;23;20000;-76
2023/09/03 10:44:44;;;;;;;23.02;12.60;;;;;;;19.36;100.00;102642.69;6222299;23;20005;-76
2023/09/03 10:47:17;;;;;;;21.38;9.73;;;;;;;19.41;100.00;102632.25;6222099;23;20027;-76
2023/09/03 10:49:51;;;;;;;18.77;9.35;;;;;;;19.45;100.00;102641.91;6222596;23;20460;-76
2023/09/03 10:52:25;;;;;;;20.27;10.63;;;;;;;19.47;100.00;102639.91;6219511;23;20005;-76
2023/09/03 10:55:09;;;;;;;20.67;9.32;;;;;;;19.54;100.00;102637.56;6219821;23;20075;-76
2023/09/03 10:57:35;;;;;;;20.70;9.73;;;;;;;19.58;100.00;102641.75;6221479;23;20027;-76
2023/09/03 11:00:02;;;;;;;18.60;8.23;;;;;;;19.67;100.00;102637.41;6219485;23;20087;-77